Aviation Digital Data Service (ADDS)

Output produced by METARs form (1222 UTC 10 July 2020)
found at http://www.aviationweather.gov/metar/data/
 
KAGS 101153Z 00000KT 6SM BR CLR 26/24 A2993 RMK AO2 SLP134 T02610239 10261 20233 53014
KAGS 101133Z 1012/1112 00000KT P6SM FEW150 
     FM101500 32005KT P6SM SCT050 SCT250 
     FM110000 00000KT P6SM SCT250